aviador You're here:

LFOT Decoded Metar

TOURS in FRANCE
Report Time2017-11-22 23:30:00
UTC Time2017-11-22 23:39:04
Flight Rules vfr VFR
Wind180° at 12 kt
W.Decomp.*RWY 20: 11.3 kt HW 4.1 kt LCW
W.Rank180° ranks 13
Current wind is above 180° avg. (7.5)
Visibility9999 m
Phenomena:N/A
Clouds:N/A
Expected CloudBase > 2,800 ft AGL from Temp-Dew spread
CeilingNone
Temp13°C (ISA -1)
Dew Point06°C (63% RH)
AAT7.8°C
QNH1003 hPa
Density Alt669 ft
Elevation354 ft
Report Wrong Elevation
Raw Report
METAR LFOT 222330Z AUTO 18012KT CAVOK 13/06 Q1003 BECMG 19018G30KT=

Extra information for LFOT:More info

Metar Taf Metar & Taf Last 4 Metars F.Rules Stats Wind Profile Meteogram Temp Stats Airport Information Weather charts Add Link Nearby VenuesMetar ALERT Operation Metar Decoded Social comments